Time;durP1;ratioP1;P1;durP2;ratioP2;P2;SDS_P1;SDS_P2;PMS_P1;PMS_P2;Temp;Humidity;BMP_temperature;BMP_pressure;BME280_temperature;BME280_humidity;BME280_pressure;Samples;Min_cycle;Max_cycle;Signal;HPM_P1;HPM_P2
2023/01/01 00:00:16;;;;;;;21.65;16.70;;;;;;;7.54;79.80;100111.93;1756805;81;21184;-70
2023/01/01 00:02:44;;;;;;;19.98;16.30;;;;;;;7.49;80.09;100127.36;1754326;81;21673;-70
2023/01/01 00:05:11;;;;;;;20.57;16.62;;;;;;;7.51;80.21;100097.66;1753152;81;21045;-70
2023/01/01 00:07:37;;;;;;;21.07;17.02;;;;;;;7.61;79.94;100102.48;1754888;81;21077;-71
2023/01/01 00:12:51;;;;;;;19.75;16.32;;;;;;;7.52;80.47;100095.38;1755014;81;21249;-71
2023/01/01 00:15:17;;;;;;;21.55;17.35;;;;;;;7.59;80.47;100085.92;1754913;80;21085;-69
2023/01/01 00:17:44;;;;;;;20.05;16.35;;;;;;;7.65;80.33;100110.47;1754898;80;21056;-69
2023/01/01 00:20:11;;;;;;;22.13;16.93;;;;;;;7.63;80.42;100115.06;1754027;80;21086;-70
2023/01/01 00:22:38;;;;;;;20.30;16.93;;;;;;;7.65;80.63;100098.57;1755179;80;21160;-70
2023/01/01 00:25:06;;;;;;;20.57;16.48;;;;;;;7.77;80.28;100097.10;1755120;80;21244;-71
2023/01/01 00:27:33;;;;;;;20.95;16.25;;;;;;;7.76;80.24;100105.50;1754971;81;21073;-69
2023/01/01 00:29:59;;;;;;;20.80;15.30;;;;;;;7.74;80.40;100093.41;1755104;81;21072;-70
2023/01/01 00:32:26;;;;;;;20.35;15.00;;;;;;;7.80;80.40;100090.19;1755235;80;21100;-70
2023/01/01 00:34:52;;;;;;;17.17;15.35;;;;;;;7.88;80.09;100073.14;1767328;80;21042;-70
2023/01/01 00:37:20;;;;;;;21.02;15.55;;;;;;;7.86;80.03;100073.75;1753729;80;22044;-70
2023/01/01 00:39:47;;;;;;;20.25;14.98;;;;;;;7.80;80.47;100080.94;1738453;81;21021;-69
2023/01/01 00:42:13;;;;;;;24.87;15.68;;;;;;;7.87;80.24;100080.22;1751411;81;21049;-72
2023/01/01 00:44:40;;;;;;;18.92;14.78;;;;;;;7.97;79.90;100104.02;1754985;80;21049;-70
2023/01/01 00:47:06;;;;;;;18.10;14.95;;;;;;;7.92;79.99;100087.75;1755076;81;21092;-70
2023/01/01 00:49:33;;;;;;;18.95;14.20;;;;;;;7.90;80.17;100092.35;1756058;80;21146;-71
2023/01/01 00:52:00;;;;;;;18.02;15.25;;;;;;;7.92;80.35;100082.92;1755034;80;21085;-69
2023/01/01 00:54:27;;;;;;;18.75;15.43;;;;;;;8.03;80.02;100070.86;1748258;80;21064;-69
2023/01/01 00:56:56;;;;;;;17.53;13.70;;;;;;;8.01;79.91;100084.23;1742898;81;21065;-71
2023/01/01 00:59:24;;;;;;;18.82;15.23;;;;;;;7.96;80.21;100094.89;1754876;81;21002;-71
2023/01/01 01:01:50;;;;;;;20.40;14.78;;;;;;;8.05;80.00;100093.57;1749624;81;21205;-72
2023/01/01 01:04:17;;;;;;;17.35;15.25;;;;;;;8.05;79.86;100071.08;1750898;80;21053;-71
2023/01/01 01:06:44;;;;;;;17.57;13.40;;;;;;;7.95;80.20;100066.28;1755268;81;21042;-72
2023/01/01 01:09:10;;;;;;;17.42;14.58;;;;;;;7.98;80.29;100087.17;1734616;80;21053;-68
2023/01/01 01:11:37;;;;;;;19.00;16.40;;;;;;;8.00;80.13;100066.70;1754789;80;21528;-71
2023/01/01 01:14:04;;;;;;;20.08;13.95;;;;;;;7.93;80.41;100070.06;1754541;80;22001;-69
2023/01/01 01:16:32;;;;;;;19.42;14.13;;;;;;;7.88;80.79;100106.21;1724763;81;21572;-69
2023/01/01 01:19:00;;;;;;;17.17;13.88;;;;;;;7.97;80.61;100089.46;1744460;81;21099;-70
2023/01/01 01:21:29;;;;;;;19.30;14.87;;;;;;;7.97;80.53;100085.98;1755043;81;21001;-71
2023/01/01 01:24:00;;;;;;;17.32;13.90;;;;;;;7.92;80.85;100082.46;1736959;81;21514;-71
2023/01/01 01:26:30;;;;;;;17.73;15.05;;;;;;;8.03;80.67;100090.20;1754236;80;21158;-71
2023/01/01 01:28:56;;;;;;;19.65;15.13;;;;;;;8.03;80.47;100074.83;1749602;81;20994;-70
2023/01/01 01:31:24;;;;;;;15.60;13.93;;;;;;;7.99;80.64;100079.56;1733557;81;21068;-69
2023/01/01 01:33:51;;;;;;;18.57;14.33;;;;;;;8.05;80.60;100068.91;1716126;83;21061;-70
2023/01/01 01:36:18;;;;;;;17.70;15.32;;;;;;;8.05;80.47;100064.93;1776513;80;21131;-70
2023/01/01 01:38:45;;;;;;;16.80;13.93;;;;;;;8.01;80.69;100079.43;1779331;80;21841;-71
2023/01/01 01:41:17;;;;;;;17.92;13.78;;;;;;;8.00;81.01;100073.81;1746640;82;21041;-71
2023/01/01 01:43:58;;;;;;;17.95;14.65;;;;;;;8.11;80.64;100074.11;1742223;80;21062;-71
2023/01/01 01:46:31;;;;;;;18.35;13.98;;;;;;;8.08;80.57;100086.66;1748116;82;21042;-70
2023/01/01 01:49:02;;;;;;;20.50;15.25;;;;;;;8.02;80.87;100081.94;1779585;80;21023;-69
2023/01/01 01:51:34;;;;;;;18.90;14.80;;;;;;;8.11;80.77;100063.52;1755729;80;21271;-70
2023/01/01 01:54:06;;;;;;;18.62;15.32;;;;;;;8.15;80.51;100082.96;1746702;82;21090;-70
2023/01/01 01:56:50;;;;;;;22.22;14.30;;;;;;;8.08;80.80;100073.42;1779195;80;21064;-70
2023/01/01 01:59:17;;;;;;;18.87;14.98;;;;;;;8.02;81.13;100091.70;1746848;81;21046;-68
2023/01/01 02:01:44;;;;;;;18.40;15.05;;;;;;;8.09;80.91;100072.92;1751045;80;21081;-70
2023/01/01 02:04:11;;;;;;;22.02;16.77;;;;;;;8.10;80.69;100073.78;1787549;80;21224;-70
2023/01/01 02:06:38;;;;;;;17.20;14.00;;;;;;;8.05;80.82;100072.41;1754869;81;21030;-70
2023/01/01 02:09:06;;;;;;;19.57;14.93;;;;;;;8.01;81.13;100064.37;1772764;80;21033;-70
2023/01/01 02:11:35;;;;;;;18.92;15.23;;;;;;;8.11;80.86;100052.94;1780806;80;21485;-69
2023/01/01 02:14:01;;;;;;;20.02;15.00;;;;;;;8.05;81.06;100052.56;1787874;80;21041;-72
2023/01/01 02:16:55;;;;;;;17.10;13.18;;;;;;;8.01;81.21;100030.48;1756497;80;21224;-69
2023/01/01 02:19:36;;;;;;;18.10;14.53;;;;;;;8.05;81.27;100055.20;1777070;80;21002;-71
2023/01/01 02:22:20;;;;;;;17.12;14.87;;;;;;;8.09;81.06;100057.05;1787063;80;21074;-71
2023/01/01 02:25:17;;;;;;;15.10;13.50;;;;;;;8.01;81.28;100059.09;1753370;81;21062;-68
2023/01/01 02:28:11;;;;;;;16.90;13.95;;;;;;;7.98;81.64;100054.10;1787802;80;21890;-69
2023/01/01 02:30:38;;;;;;;16.37;13.53;;;;;;;8.04;81.34;100053.52;1756350;81;21559;-69
2023/01/01 02:33:10;;;;;;;16.05;13.62;;;;;;;7.98;81.57;100058.57;1769796;80;22065;-69
2023/01/01 02:35:41;;;;;;;15.38;13.75;;;;;;;8.01;81.70;100078.11;1754611;81;21003;-71
2023/01/01 02:38:30;;;;;;;17.75;13.25;;;;;;;8.04;81.50;100064.61;1780143;80;21030;-70
2023/01/01 02:41:01;;;;;;;16.37;13.18;;;;;;;8.00;81.67;100068.02;1787231;80;21045;-69
2023/01/01 02:43:27;;;;;;;16.20;13.72;;;;;;;8.07;81.61;100053.25;1735128;81;21217;-68
2023/01/01 02:45:54;;;;;;;16.15;14.13;;;;;;;8.13;81.36;100044.37;1787695;80;21069;-71
2023/01/01 02:48:46;;;;;;;16.82;14.00;;;;;;;8.05;81.61;100067.58;1755117;81;21054;-69
2023/01/01 02:51:46;;;;;;;17.12;12.93;;;;;;;8.06;81.92;100068.77;1778708;80;21062;-69
2023/01/01 02:54:21;;;;;;;16.77;13.35;;;;;;;8.14;81.49;100069.37;1753925;81;21089;-70
2023/01/01 02:56:56;;;;;;;16.23;13.00;;;;;;;8.08;81.81;100060.19;1766914;80;21256;-72
2023/01/01 03:02:56;;;;;;;18.07;13.08;;;;;;;8.12;81.62;100055.45;1757893;80;20993;-72
2023/01/01 03:05:34;;;;;;;16.93;12.85;;;;;;;8.05;82.04;100035.83;1778241;80;21510;-72
2023/01/01 03:08:13;;;;;;;16.70;12.68;;;;;;;8.13;82.01;100048.33;1751553;80;21059;-71
2023/01/01 03:10:52;;;;;;;15.60;12.45;;;;;;;8.14;81.83;100038.94;1767240;80;21103;-71
2023/01/01 03:13:36;;;;;;;14.43;12.28;;;;;;;8.06;82.17;100053.39;1721029;81;20982;-70
2023/01/01 03:16:26;;;;;;;13.50;11.05;;;;;;;8.10;82.36;100061.88;1771737;80;21014;-71
2023/01/01 03:19:10;;;;;;;14.58;12.82;;;;;;;8.18;82.10;100051.39;1771734;80;21991;-71
2023/01/01 03:21:43;;;;;;;15.18;12.80;;;;;;;8.12;82.25;100055.45;1752691;80;21065;-71
2023/01/01 03:24:16;;;;;;;13.88;11.33;;;;;;;8.06;82.64;100059.50;1770381;80;21737;-72
2023/01/01 03:26:43;;;;;;;14.73;12.18;;;;;;;8.13;82.56;100055.81;1741858;80;21114;-73
2023/01/01 03:29:11;;;;;;;16.60;12.03;;;;;;;8.23;82.18;100049.16;1753989;80;21581;-72
2023/01/01 03:31:41;;;;;;;16.05;11.08;;;;;;;8.18;82.36;100046.92;1771966;80;21062;-74
2023/01/01 03:34:13;;;;;;;15.32;11.28;;;;;;;8.16;82.62;100072.70;1771672;80;21022;-73
2023/01/01 03:36:43;;;;;;;13.03;10.95;;;;;;;8.29;82.26;100051.21;1771783;80;21815;-70
2023/01/01 03:39:29;;;;;;;13.78;10.58;;;;;;;8.29;82.25;100049.89;1771920;80;21948;-71
2023/01/01 03:42:16;;;;;;;16.75;10.90;;;;;;;8.23;82.47;100041.22;1771779;81;20994;-70
2023/01/01 03:44:55;;;;;;;13.30;10.93;;;;;;;8.28;82.40;100056.97;1767573;80;21049;-72
2023/01/01 03:47:21;;;;;;;13.90;10.95;;;;;;;8.35;82.15;100050.63;1771732;81;21086;-70
2023/01/01 03:49:47;;;;;;;15.03;10.75;;;;;;;8.30;82.46;100071.39;1772059;80;21057;-73
2023/01/01 03:52:41;;;;;;;13.55;11.43;;;;;;;8.30;82.62;100052.04;1771704;80;21061;-70
2023/01/01 03:55:13;;;;;;;12.98;10.98;;;;;;;8.41;82.37;100055.83;1771870;80;21501;-73
2023/01/01 03:57:56;;;;;;;13.28;10.98;;;;;;;8.38;82.31;100053.45;1771103;81;21034;-71
2023/01/01 04:00:28;;;;;;;13.30;11.15;;;;;;;8.32;82.54;100058.84;1754847;80;21034;-72
2023/01/01 04:03:05;;;;;;;13.32;11.00;;;;;;;8.38;82.54;100076.82;1736925;80;21152;-73
2023/01/01 04:05:35;;;;;;;15.28;10.13;;;;;;;8.42;82.36;100066.31;1757185;80;21064;-73
2023/01/01 04:08:02;;;;;;;11.10;9.50;;;;;;;8.37;82.82;100069.02;1740583;80;21055;-72
2023/01/01 04:10:31;;;;;;;13.28;10.15;;;;;;;8.44;82.82;100064.81;1684072;84;21571;-71
2023/01/01 04:12:58;;;;;;;14.20;11.18;;;;;;;8.51;82.47;100068.55;1756227;81;21057;-71
2023/01/01 04:16:16;;;;;;;12.88;10.53;;;;;;;8.53;82.52;100063.12;1793592;79;27745;-73
2023/01/01 04:18:43;;;;;;;12.63;9.85;;;;;;;8.48;82.75;100070.66;1758105;81;20981;-72
2023/01/01 04:21:11;;;;;;;12.00;9.70;;;;;;;8.58;82.43;100079.41;1788964;80;21117;-72
2023/01/01 04:23:37;;;;;;;11.40;9.93;;;;;;;8.58;82.36;100068.81;1786521;80;21071;-72
2023/01/01 04:26:04;;;;;;;13.18;9.75;;;;;;;8.51;82.61;100064.58;1757557;81;21007;-73
2023/01/01 04:28:31;;;;;;;11.97;9.48;;;;;;;8.55;82.76;100055.86;1757308;81;21585;-72
2023/01/01 04:31:02;;;;;;;13.62;10.15;;;;;;;8.62;82.55;100058.27;1748899;81;21042;-72
2023/01/01 04:33:29;;;;;;;11.78;9.63;;;;;;;8.59;82.64;100058.55;1745300;81;21552;-70
2023/01/01 04:35:55;;;;;;;10.30;9.20;;;;;;;8.56;82.90;100070.28;1741480;81;20973;-71
2023/01/01 04:38:22;;;;;;;12.40;10.23;;;;;;;8.64;82.91;100062.42;1757332;81;20999;-71
2023/01/01 04:40:58;;;;;;;12.05;10.25;;;;;;;8.68;82.63;100052.38;1757397;81;21011;-72
2023/01/01 04:43:25;;;;;;;13.68;9.40;;;;;;;8.65;82.75;100055.30;1756531;81;21080;-71
2023/01/01 04:46:00;;;;;;;11.15;9.95;;;;;;;8.64;83.03;100062.92;1727334;81;21103;-72
2023/01/01 04:48:27;;;;;;;14.03;11.90;;;;;;;8.74;82.88;100072.97;1748230;81;20978;-72
2023/01/01 04:51:00;;;;;;;12.93;10.98;;;;;;;8.74;82.67;100065.02;1757168;81;21053;-72
2023/01/01 04:53:31;;;;;;;;;;;;;;;8.73;82.97;100073.11;1740370;81;21089;-70
2023/01/01 04:56:07;;;;;;;12.45;9.40;;;;;;;8.80;82.80;100065.74;1744812;81;20183;-70
2023/01/01 04:58:34;;;;;;;13.93;11.28;;;;;;;8.83;82.62;100081.85;1768587;78;21083;-68
2023/01/01 05:01:01;;;;;;;12.55;9.53;;;;;;;8.79;82.67;100070.72;1789699;80;21051;-72
2023/01/01 05:03:28;;;;;;;13.20;9.20;;;;;;;8.73;82.96;100063.37;1757207;81;21018;-68
2023/01/01 05:06:06;;;;;;;10.43;9.30;;;;;;;8.82;82.87;100067.75;1756959;81;22080;-72
2023/01/01 05:08:36;;;;;;;14.98;10.90;;;;;;;8.84;82.78;100074.23;1757266;81;21085;-70
2023/01/01 05:11:09;;;;;;;13.93;9.53;;;;;;;8.76;83.09;100074.15;1756314;81;21087;-70
2023/01/01 05:13:38;;;;;;;10.63;9.10;;;;;;;8.76;83.25;100068.85;1756647;81;21022;-71
2023/01/01 05:16:05;;;;;;;12.18;9.33;;;;;;;8.82;83.20;100077.52;1753059;81;20998;-70
2023/01/01 05:18:33;;;;;;;10.20;8.65;;;;;;;8.76;83.34;100079.45;1752052;81;21015;-72
2023/01/01 05:21:04;;;;;;;10.08;8.60;;;;;;;8.72;83.70;100074.10;1704925;82;21065;-69
2023/01/01 05:23:31;;;;;;;11.22;9.48;;;;;;;8.79;83.50;100080.48;1739102;82;21797;-68
2023/01/01 05:25:57;;;;;;;11.38;9.68;;;;;;;8.76;83.46;100083.42;1761515;81;21215;-70
2023/01/01 05:28:24;;;;;;;9.25;8.18;;;;;;;8.66;83.74;100082.97;1770526;81;21026;-69
2023/01/01 05:30:51;;;;;;;12.18;8.60;;;;;;;8.64;84.18;100076.98;1757956;81;21092;-70
2023/01/01 05:33:19;;;;;;;11.38;9.35;;;;;;;8.70;83.97;100077.39;1749048;81;21040;-70
2023/01/01 05:35:45;;;;;;;9.48;8.48;;;;;;;8.68;83.93;100080.69;1765576;81;21813;-69
2023/01/01 05:38:12;;;;;;;9.23;8.20;;;;;;;8.59;84.25;100076.59;1705398;81;21061;-70
2023/01/01 05:40:39;;;;;;;10.25;8.33;;;;;;;8.52;84.81;100087.91;1751124;81;21029;-68
2023/01/01 05:43:06;;;;;;;12.23;9.18;;;;;;;8.58;84.70;100073.61;1749419;80;21055;-70
2023/01/01 05:45:33;;;;;;;10.35;8.83;;;;;;;8.61;84.57;100075.13;1770316;81;21519;-70
2023/01/01 05:47:59;;;;;;;10.30;7.90;;;;;;;8.54;84.85;100072.74;1783388;80;21113;-72
2023/01/01 05:50:26;;;;;;;10.78;8.68;;;;;;;8.56;84.90;100065.48;1783386;80;21059;-69
2023/01/01 05:52:52;;;;;;;11.18;9.15;;;;;;;8.61;84.70;100071.16;1783110;80;21562;-68
2023/01/01 05:55:19;;;;;;;10.80;8.48;;;;;;;8.56;84.73;100068.13;1771949;80;21050;-70
2023/01/01 05:57:45;;;;;;;9.63;7.25;;;;;;;8.49;85.42;100086.90;1749328;81;21068;-69
2023/01/01 06:00:13;;;;;;;10.58;8.03;;;;;;;8.56;85.03;100077.40;1760601;80;21148;-69
2023/01/01 06:02:40;;;;;;;10.20;7.45;;;;;;;8.54;85.21;100090.78;1759993;81;21018;-71
2023/01/01 06:05:08;;;;;;;9.30;7.67;;;;;;;8.48;85.38;100079.92;1763310;81;21106;-72
2023/01/01 06:07:35;;;;;;;9.60;7.60;;;;;;;8.51;85.50;100093.70;1747272;82;21037;-69
2023/01/01 06:10:03;;;;;;;9.95;8.23;;;;;;;8.57;85.32;100102.88;1770220;81;21040;-70
2023/01/01 06:12:29;;;;;;;10.35;7.80;;;;;;;8.52;85.56;100101.16;1768522;80;21243;-69
2023/01/01 06:14:56;;;;;;;10.55;7.87;;;;;;;8.57;85.36;100094.44;1779995;79;21059;-70
2023/01/01 06:17:23;;;;;;;9.45;8.45;;;;;;;8.59;85.08;100095.13;1761696;81;21036;-69
2023/01/01 06:19:50;;;;;;;8.25;7.22;;;;;;;8.54;85.44;100111.14;1739958;81;21532;-71
2023/01/01 06:22:17;;;;;;;8.65;7.42;;;;;;;8.49;85.72;100110.23;1739647;82;21103;-69
2023/01/01 06:24:44;;;;;;;9.30;7.58;;;;;;;8.58;85.47;100103.24;1740150;82;21134;-69
2023/01/01 06:27:10;;;;;;;10.15;7.87;;;;;;;8.61;85.33;100102.44;1737040;82;21035;-70
2023/01/01 06:29:37;;;;;;;11.00;8.63;;;;;;;8.57;85.30;100097.09;1737848;82;21578;-72
2023/01/01 06:32:04;;;;;;;9.58;7.72;;;;;;;8.51;85.45;100092.38;1735131;82;21619;-70
2023/01/01 06:34:30;;;;;;;10.75;8.45;;;;;;;8.53;85.61;100097.54;1755857;81;21080;-70
2023/01/01 06:36:57;;;;;;;11.83;9.63;;;;;;;8.58;85.46;100096.12;1761179;81;21556;-72
2023/01/01 06:39:23;;;;;;;12.37;9.73;;;;;;;8.56;85.43;100093.29;1764237;81;21102;-70
2023/01/01 06:41:50;;;;;;;10.35;8.95;;;;;;;8.52;85.61;100090.56;1740153;82;21061;-70
2023/01/01 06:44:16;;;;;;;12.45;9.78;;;;;;;8.59;85.46;100091.66;1777180;80;21010;-70
2023/01/01 06:46:42;;;;;;;11.43;8.58;;;;;;;8.55;85.56;100090.28;1754590;80;21087;-70
2023/01/01 06:49:11;;;;;;;12.20;8.98;;;;;;;8.52;85.65;100090.56;1757423;80;21182;-72
2023/01/01 06:51:39;;;;;;;11.60;8.08;;;;;;;8.54;85.85;100095.25;1758221;80;21031;-71
2023/01/01 06:54:07;;;;;;;8.60;7.53;;;;;;;8.63;85.44;100087.73;1757525;80;21051;-72
2023/01/01 06:56:34;;;;;;;9.58;7.53;;;;;;;8.61;85.58;100085.22;1756672;80;21066;-70
2023/01/01 06:59:00;;;;;;;8.93;7.65;;;;;;;8.65;85.40;100088.41;1752548;80;21574;-69
2023/01/01 07:01:30;;;;;;;9.03;7.00;;;;;;;8.72;85.07;100086.85;1761390;80;21516;-72
2023/01/01 07:04:00;;;;;;;8.03;6.80;;;;;;;8.68;85.11;100093.42;1783384;80;21069;-71
2023/01/01 07:06:29;;;;;;;9.33;7.50;;;;;;;8.69;85.14;100107.00;1783202;80;21022;-68
2023/01/01 07:08:55;;;;;;;8.73;7.15;;;;;;;8.76;84.88;100100.64;1782479;80;21481;-70
2023/01/01 07:11:24;;;;;;;8.55;7.53;;;;;;;8.71;84.99;100103.73;1754829;80;21036;-70
2023/01/01 07:13:50;;;;;;;9.90;7.95;;;;;;;8.74;85.02;100102.60;1772338;80;21133;-69
2023/01/01 07:16:17;;;;;;;10.05;7.95;;;;;;;8.80;84.77;100104.16;1751517;80;21503;-69
2023/01/01 07:18:44;;;;;;;11.10;8.15;;;;;;;8.79;84.70;100109.13;1753574;80;21494;-69
2023/01/01 07:21:30;;;;;;;9.50;7.22;;;;;;;8.75;84.83;100107.76;1751209;80;21145;-70
2023/01/01 07:24:01;;;;;;;9.50;7.00;;;;;;;8.83;84.69;100126.89;1753368;81;21052;-70
2023/01/01 07:26:28;;;;;;;8.65;7.50;;;;;;;8.90;84.30;100125.30;1738076;81;21758;-72
2023/01/01 07:28:54;;;;;;;9.80;6.67;;;;;;;8.88;84.28;100115.84;1731899;81;21335;-71
2023/01/01 07:31:21;;;;;;;12.43;7.65;;;;;;;8.94;84.20;100107.29;1734235;81;21068;-70
2023/01/01 07:33:47;;;;;;;8.80;7.90;;;;;;;8.98;83.88;100113.48;1765688;80;21505;-72
2023/01/01 07:36:16;;;;;;;9.90;7.22;;;;;;;8.99;83.78;100116.47;1749575;80;21061;-71
2023/01/01 07:38:42;;;;;;;8.78;6.42;;;;;;;8.98;83.91;100119.26;1749256;80;21094;-71
2023/01/01 07:41:09;;;;;;;10.98;6.97;;;;;;;9.09;83.66;100103.65;1755978;80;21084;-72
2023/01/01 07:43:36;;;;;;;10.23;6.85;;;;;;;9.13;83.40;100113.80;1767800;80;20982;-70
2023/01/01 07:46:03;;;;;;;8.18;6.62;;;;;;;9.11;83.39;100094.56;1761052;80;20995;-72
2023/01/01 07:48:29;;;;;;;8.80;7.30;;;;;;;9.13;83.40;100105.02;1747645;80;21091;-73
2023/01/01 07:50:55;;;;;;;7.95;7.15;;;;;;;9.24;82.95;100102.16;1745536;80;21154;-72
2023/01/01 07:53:22;;;;;;;7.92;6.78;;;;;;;9.28;82.67;100096.06;1747883;80;21491;-72
2023/01/01 07:55:49;;;;;;;9.70;7.03;;;;;;;9.24;82.68;100096.34;1774215;80;21050;-72
2023/01/01 07:58:18;;;;;;;8.93;7.12;;;;;;;9.23;82.70;100101.80;1756206;80;21553;-72
2023/01/01 08:00:47;;;;;;;9.60;7.58;;;;;;;9.32;82.41;100118.13;1762754;80;21116;-72
2023/01/01 08:03:14;;;;;;;10.18;6.97;;;;;;;9.39;81.97;100098.49;1744895;80;21121;-70
2023/01/01 08:05:41;;;;;;;8.88;7.10;;;;;;;9.36;81.96;100114.19;1753199;80;21104;-70
2023/01/01 08:08:09;;;;;;;8.60;6.87;;;;;;;9.34;82.20;100096.28;1775313;80;21110;-69
2023/01/01 08:10:36;;;;;;;9.33;7.37;;;;;;;9.43;81.93;100097.20;1750785;80;21039;-73
2023/01/01 08:13:06;;;;;;;9.03;7.55;;;;;;;9.43;81.72;100141.78;1760554;80;21081;-70
2023/01/01 08:15:33;;;;;;;8.68;6.55;;;;;;;9.42;81.76;100095.02;1747215;80;21207;-72
2023/01/01 08:18:03;;;;;;;8.68;6.47;;;;;;;9.48;81.75;100100.20;1764302;80;21477;-72
2023/01/01 08:20:30;;;;;;;10.80;7.83;;;;;;;9.62;81.27;100087.75;1768439;80;21018;-71
2023/01/01 08:22:57;;;;;;;11.10;7.53;;;;;;;9.63;80.95;100090.73;1742186;80;21614;-72
2023/01/01 08:25:25;;;;;;;9.50;7.35;;;;;;;9.65;81.01;100091.91;1736994;80;21104;-72
2023/01/01 08:27:51;;;;;;;7.17;6.42;;;;;;;9.68;80.89;100095.59;1758197;80;21271;-69
2023/01/01 08:30:18;;;;;;;7.70;6.65;;;;;;;9.83;80.49;100104.66;1766596;81;21549;-71
2023/01/01 08:32:44;;;;;;;9.53;7.47;;;;;;;9.88;79.97;100106.02;1750391;81;21061;-70
2023/01/01 08:35:11;;;;;;;9.23;7.42;;;;;;;9.91;79.99;100103.89;1746724;81;21118;-69
2023/01/01 08:37:37;;;;;;;8.88;6.75;;;;;;;9.90;79.97;100109.34;1740383;82;21020;-71
2023/01/01 08:40:06;;;;;;;9.95;7.08;;;;;;;10.07;79.78;100103.67;1769776;81;21227;-71
2023/01/01 08:42:32;;;;;;;8.78;6.97;;;;;;;10.20;79.37;100102.25;1769719;81;21508;-74
2023/01/01 08:44:59;;;;;;;7.80;7.00;;;;;;;10.27;78.64;100097.64;1769389;81;21012;-72
2023/01/01 08:47:26;;;;;;;9.23;6.50;;;;;;;10.30;78.33;100095.53;1768253;81;21078;-74
2023/01/01 08:49:52;;;;;;;8.13;7.12;;;;;;;10.39;78.21;100097.25;1764551;81;20992;-72
2023/01/01 08:52:19;;;;;;;8.63;6.97;;;;;;;10.50;77.55;100088.66;1739371;81;21133;-72
2023/01/01 08:54:45;;;;;;;7.65;6.90;;;;;;;10.51;77.33;100096.47;1755671;80;21050;-72
2023/01/01 08:57:13;;;;;;;8.15;6.85;;;;;;;10.48;77.25;100106.58;1747604;82;21039;-70
2023/01/01 08:59:40;;;;;;;7.65;6.85;;;;;;;10.45;77.41;100093.13;1753304;81;21509;-73
2023/01/01 09:02:06;;;;;;;9.45;7.50;;;;;;;10.59;77.10;100089.04;1749210;81;21116;-70
2023/01/01 09:04:34;;;;;;;7.37;6.47;;;;;;;10.62;76.78;100092.69;1740971;81;22103;-72
2023/01/01 09:07:01;;;;;;;7.90;7.10;;;;;;;10.58;76.73;100082.05;1751086;81;21036;-70
2023/01/01 09:09:27;;;;;;;8.98;7.40;;;;;;;10.56;76.83;100074.73;1743449;81;21036;-73
2023/01/01 09:11:57;;;;;;;9.08;7.75;;;;;;;10.65;76.83;100070.30;1745876;81;21025;-72
2023/01/01 09:14:24;;;;;;;9.15;7.83;;;;;;;10.80;76.25;100078.81;1743435;81;20990;-71
2023/01/01 09:16:51;;;;;;;8.88;7.83;;;;;;;10.79;75.92;100080.30;1750967;81;21127;-70
2023/01/01 09:19:18;;;;;;;8.98;7.17;;;;;;;10.72;76.09;100072.62;1750517;81;21116;-72
2023/01/01 09:21:45;;;;;;;9.10;7.62;;;;;;;10.64;76.36;100076.09;1720786;82;21126;-70
2023/01/01 09:24:11;;;;;;;11.30;7.95;;;;;;;10.67;76.57;100063.00;1759396;81;21061;-69
2023/01/01 09:26:38;;;;;;;9.93;7.95;;;;;;;10.73;76.38;100070.32;1742574;82;21516;-69
2023/01/01 09:29:05;;;;;;;10.25;8.08;;;;;;;10.69;76.42;100058.35;1744091;82;21036;-71
2023/01/01 09:31:32;;;;;;;11.12;8.28;;;;;;;10.63;76.52;100057.17;1759215;81;21088;-72
2023/01/01 09:33:59;;;;;;;9.88;7.70;;;;;;;10.63;76.61;100073.11;1760183;81;21005;-72
2023/01/01 09:36:29;;;;;;;8.80;7.80;;;;;;;10.74;76.48;100061.34;1754197;81;21061;-71
2023/01/01 09:38:57;;;;;;;12.00;8.68;;;;;;;10.84;76.02;100054.59;1756695;81;21063;-71
2023/01/01 09:41:54;;;;;;;11.12;8.88;;;;;;;10.85;75.83;100074.84;1745149;81;21624;-72
2023/01/01 09:44:50;;;;;;;11.73;8.20;;;;;;;10.82;75.83;100054.23;1739454;81;21032;-68
2023/01/01 09:47:29;;;;;;;8.18;7.25;;;;;;;10.80;75.86;100065.53;1751422;81;21048;-70
2023/01/01 09:50:00;;;;;;;9.80;8.30;;;;;;;10.93;75.56;100057.58;1745821;82;21059;-70
2023/01/01 09:52:38;;;;;;;12.47;7.97;;;;;;;11.00;75.28;100068.73;1769159;81;21581;-72
2023/01/01 09:55:19;;;;;;;10.20;8.40;;;;;;;10.99;75.19;100055.59;1748537;82;21211;-71
2023/01/01 09:57:45;;;;;;;11.25;8.80;;;;;;;11.00;75.25;100061.25;1725201;81;21598;-72
2023/01/01 10:00:16;;;;;;;9.23;7.37;;;;;;;10.96;75.27;100060.75;1748823;81;21033;-69
2023/01/01 10:03:06;;;;;;;8.90;7.33;;;;;;;11.04;75.09;100075.88;1752286;81;21338;-71
2023/01/01 10:05:51;;;;;;;10.25;7.33;;;;;;;11.16;74.58;100059.97;1740130;81;21105;-73
2023/01/01 10:08:58;;;;;;;10.45;8.20;;;;;;;11.22;74.46;100049.14;1732128;81;21457;-71
2023/01/01 10:11:37;;;;;;;9.38;7.85;;;;;;;11.28;74.17;100052.98;1759174;81;21521;-71
2023/01/01 10:14:24;;;;;;;11.05;8.08;;;;;;;11.34;73.92;100045.19;1760308;80;21080;-71
2023/01/01 10:16:54;;;;;;;9.23;7.92;;;;;;;11.42;73.63;100053.67;1745592;81;21494;-71
2023/01/01 10:19:31;;;;;;;9.60;7.65;;;;;;;11.44;73.56;100037.04;1732605;81;21081;-71
2023/01/01 10:22:03;;;;;;;10.18;9.05;;;;;;;11.52;73.39;100052.99;1733146;81;21200;-70
2023/01/01 10:24:42;;;;;;;9.40;7.22;;;;;;;11.65;72.87;100042.33;1741216;81;21037;-71
2023/01/01 10:27:40;;;;;;;8.23;7.40;;;;;;;11.60;72.82;100041.01;1698750;81;21545;-69
2023/01/01 10:30:18;;;;;;;13.10;8.45;;;;;;;11.54;72.98;100048.33;1751059;80;21098;-70
2023/01/01 10:32:48;;;;;;;10.65;8.10;;;;;;;11.48;73.24;100052.17;1752441;81;21057;-70
2023/01/01 10:35:19;;;;;;;11.50;8.10;;;;;;;11.45;73.47;100048.50;1735536;81;21094;-67
2023/01/01 10:37:45;;;;;;;9.88;7.85;;;;;;;11.49;73.57;100059.14;1735819;81;21528;-71
2023/01/01 10:40:18;;;;;;;8.75;7.42;;;;;;;11.61;73.09;100055.17;1748588;81;21087;-67
2023/01/01 10:42:52;;;;;;;10.95;7.75;;;;;;;11.62;72.96;100056.81;1748738;81;27142;-70
2023/01/01 10:45:34;;;;;;;9.93;8.10;;;;;;;11.66;72.79;100059.98;1736659;80;21106;-67
2023/01/01 10:48:20;;;;;;;9.38;7.80;;;;;;;11.66;72.84;100044.01;1770034;80;21272;-69
2023/01/01 10:51:00;;;;;;;9.70;8.20;;;;;;;11.67;72.84;100043.84;1741643;81;21049;-65
2023/01/01 10:53:37;;;;;;;10.43;8.40;;;;;;;11.68;72.90;100043.34;1739307;81;21047;-68
2023/01/01 10:56:11;;;;;;;10.55;7.30;;;;;;;11.70;72.87;100053.31;1774636;80;21012;-69
2023/01/01 10:58:53;;;;;;;7.97;7.03;;;;;;;11.85;72.46;100046.82;1754428;80;21587;-68
2023/01/01 11:01:24;;;;;;;9.83;7.92;;;;;;;11.98;71.96;100051.98;1770125;80;21031;-68
2023/01/01 11:04:02;;;;;;;8.60;7.70;;;;;;;12.02;71.70;100051.14;1748300;81;21073;-68
2023/01/01 11:06:36;;;;;;;8.70;6.97;;;;;;;12.10;71.63;100055.62;1750537;81;21039;-68
2023/01/01 11:09:06;;;;;;;8.25;7.25;;;;;;;12.16;71.40;100046.94;1739585;81;21053;-68
2023/01/01 11:11:42;;;;;;;9.98;7.67;;;;;;;12.23;71.08;100041.27;1747820;80;21048;-68
2023/01/01 11:14:22;;;;;;;13.53;8.33;;;;;;;12.31;71.07;100035.91;1743742;80;21715;-67
2023/01/01 11:16:49;;;;;;;8.40;7.50;;;;;;;12.41;70.49;100053.53;1763414;80;21053;-68
2023/01/01 11:19:24;;;;;;;8.13;7.30;;;;;;;12.50;70.27;100045.84;1768280;80;21033;-67
2023/01/01 11:21:51;;;;;;;8.35;7.05;;;;;;;12.55;69.97;100053.61;1759987;80;21056;-67
2023/01/01 11:24:23;;;;;;;8.73;7.47;;;;;;;12.59;69.70;100046.95;1772683;80;21059;-67
2023/01/01 11:26:50;;;;;;;7.65;6.55;;;;;;;12.62;69.57;100046.28;1754509;81;21306;-66
2023/01/01 11:29:27;;;;;;;8.95;6.85;;;;;;;12.65;69.58;100045.44;1756720;81;21089;-71
2023/01/01 11:31:54;;;;;;;8.88;7.53;;;;;;;12.69;69.39;100045.41;1759034;81;21009;-69
2023/01/01 11:34:26;;;;;;;8.10;6.62;;;;;;;12.77;69.30;100032.55;1767719;80;21075;-71
2023/01/01 11:37:34;;;;;;;8.23;7.20;;;;;;;12.81;68.86;100027.19;1741197;81;21530;-68
2023/01/01 11:40:03;;;;;;;8.25;6.50;;;;;;;12.86;68.85;100022.64;1717596;80;21323;-73
2023/01/01 11:42:34;;;;;;;7.30;6.45;;;;;;;12.88;68.69;100025.45;1737376;81;21018;-72
2023/01/01 11:45:08;;;;;;;7.62;6.22;;;;;;;12.91;68.48;100021.62;1754849;80;21093;-73
2023/01/01 11:47:40;;;;;;;8.10;7.03;;;;;;;12.91;68.48;100026.95;1771284;80;21003;-70